createdAt,value
2018-05-08T04:09:33.557Z,25
2018-05-08T04:09:59.058Z,25
2018-05-08T04:10:24.603Z,25
2018-05-08T04:10:50.101Z,25
2018-05-08T04:11:15.618Z,25
2018-05-08T04:11:41.090Z,25
2018-05-08T04:12:06.633Z,25
2018-05-08T04:12:32.095Z,25
2018-05-08T04:12:57.619Z,25
2018-05-08T04:13:23.121Z,25
2018-05-08T04:13:48.601Z,25
2018-05-08T04:14:14.105Z,30
2018-05-08T04:14:39.600Z,30
2018-05-08T04:15:05.133Z,30
2018-05-08T04:15:30.693Z,30
2018-05-08T04:15:56.320Z,30
2018-05-08T04:16:21.898Z,30
2018-05-08T04:16:47.578Z,30
2018-05-08T04:17:13.108Z,30
2018-05-08T04:17:38.600Z,30
2018-05-08T04:18:04.100Z,30
2018-05-08T04:18:29.543Z,30
2018-05-08T04:18:55.070Z,30
2018-05-08T04:19:20.497Z,35
2018-05-08T04:19:46.009Z,35
2018-05-08T04:20:11.467Z,35
2018-05-08T04:20:36.918Z,35
2018-05-08T04:21:02.531Z,35
2018-05-08T04:21:27.978Z,35
2018-05-08T04:21:53.476Z,35
2018-05-08T04:23:07.328Z,35
2018-05-08T04:23:32.799Z,35
2018-05-08T04:23:58.288Z,40
2018-05-08T04:24:23.855Z,40
2018-05-08T04:24:49.279Z,40
2018-05-08T04:25:14.817Z,40
2018-05-08T04:25:40.349Z,40
2018-05-08T04:26:05.829Z,40
2018-05-08T04:26:31.324Z,40
2018-05-08T04:26:56.823Z,40
2018-05-08T04:27:22.318Z,40
2018-05-08T04:27:47.836Z,40
2018-05-08T04:28:13.338Z,40
2018-05-08T04:28:38.803Z,45
2018-05-08T04:29:04.320Z,45
2018-05-08T04:29:29.804Z,45
2018-05-08T04:29:55.324Z,45
2018-05-08T04:31:09.103Z,45
2018-05-08T04:31:34.695Z,45
2018-05-08T04:32:00.313Z,45
2018-05-08T04:32:25.844Z,50
2018-05-08T04:32:51.308Z,50
2018-05-08T04:33:16.856Z,50
2018-05-08T04:33:42.345Z,50
2018-05-08T04:34:07.829Z,50
2018-05-08T04:34:33.407Z,50
2018-05-08T04:34:58.910Z,55
2018-05-08T04:35:24.402Z,55
2018-05-08T04:35:49.929Z,55
2018-05-08T04:36:15.431Z,60
2018-05-08T04:36:41.095Z,60
2018-05-08T04:37:06.462Z,60
2018-05-08T04:37:32.137Z,65
2018-05-08T04:37:57.676Z,65
2018-05-08T04:38:23.138Z,60
2018-05-08T04:39:48.219Z,70
2018-05-08T04:40:13.675Z,70
2018-05-08T04:40:39.105Z,70
2018-05-08T04:41:48.854Z,75
2018-05-08T04:42:14.961Z,80
2018-05-08T04:42:41.014Z,80
2018-05-08T04:43:06.610Z,80
2018-05-08T04:43:32.746Z,85
2018-05-08T04:43:58.865Z,80
2018-05-08T04:44:24.508Z,80
2018-05-08T04:44:50.145Z,80
2018-05-08T04:45:15.751Z,85
2018-05-08T04:45:41.819Z,85
2018-05-08T04:46:07.079Z,85
2018-05-08T04:46:32.772Z,85
2018-05-08T04:46:58.579Z,85
2018-05-08T04:47:24.467Z,85
2018-05-08T04:47:49.883Z,85
2018-05-08T04:48:15.384Z,90
2018-05-08T04:48:40.983Z,90
2018-05-08T04:49:06.712Z,90
2018-05-08T04:49:32.333Z,90
2018-05-08T04:49:57.866Z,90
2018-05-08T04:50:23.444Z,90
2018-05-08T04:50:49.048Z,90
2018-05-08T04:51:14.521Z,90
2018-05-08T04:51:40.321Z,90
2018-05-08T04:52:06.760Z,95
2018-05-08T04:52:32.873Z,95
2018-05-08T04:52:59.027Z,95
2018-05-08T04:53:24.618Z,95
2018-05-08T04:53:50.309Z,95
2018-05-08T04:54:16.257Z,95
2018-05-08T04:54:42.168Z,100
2018-05-08T04:55:07.979Z,100
2018-05-08T04:55:33.507Z,100
2018-05-08T04:55:59.047Z,100
2018-05-08T04:56:24.542Z,100
2018-05-08T04:56:50.076Z,100
2018-05-08T04:57:15.530Z,100
2018-05-08T04:58:34.566Z,105
2018-05-08T04:59:00.099Z,105
2018-05-08T04:59:25.539Z,105
2018-05-08T04:59:51.047Z,105
2018-05-08T05:00:16.523Z,105
2018-05-08T05:00:42.027Z,105
2018-05-08T05:01:07.514Z,105
2018-05-08T05:01:33.017Z,110
2018-05-08T05:01:58.582Z,110
2018-05-08T05:02:24.090Z,110
2018-05-08T05:02:49.537Z,110
2018-05-08T05:03:15.081Z,110
2018-05-08T05:03:40.618Z,110
2018-05-08T05:04:06.124Z,110
2018-05-08T05:04:31.586Z,110
2018-05-08T05:04:57.062Z,110
2018-05-08T05:05:22.619Z,115
2018-05-08T05:05:48.105Z,115
2018-05-08T05:06:13.623Z,115
2018-05-08T05:06:39.086Z,115
2018-05-08T05:07:04.630Z,115
2018-05-08T05:07:30.045Z,115
2018-05-08T05:08:43.894Z,115
2018-05-08T05:09:09.387Z,115
2018-05-08T05:09:34.915Z,115
2018-05-08T05:10:00.330Z,135
2018-05-08T05:10:25.819Z,130
2018-05-08T05:10:51.294Z,135
2018-05-08T05:11:16.811Z,130
2018-05-08T05:11:42.335Z,130
2018-05-08T05:12:07.827Z,135
2018-05-08T05:12:33.354Z,135
2018-05-08T05:12:58.864Z,135
2018-05-08T05:13:24.313Z,135
2018-05-08T05:13:49.790Z,135
2018-05-08T05:14:15.291Z,140
2018-05-08T05:14:40.778Z,140
2018-05-08T05:15:06.288Z,140
2018-05-08T05:15:31.794Z,140
2018-05-08T05:15:57.294Z,140
2018-05-08T05:17:26.599Z,145
2018-05-08T05:17:52.077Z,150
2018-05-08T05:18:17.730Z,150
2018-05-08T05:18:43.220Z,150
2018-05-08T05:19:08.777Z,150
2018-05-08T05:19:34.372Z,155
2018-05-08T05:19:59.899Z,155
2018-05-08T05:20:25.384Z,155
2018-05-08T05:20:51.007Z,155
2018-05-08T05:21:16.690Z,155
2018-05-08T05:21:42.035Z,160
2018-05-08T05:22:07.523Z,160
2018-05-08T05:22:33.015Z,160
2018-05-08T05:22:58.497Z,160
2018-05-08T05:23:23.977Z,160
2018-05-08T05:23:49.463Z,160
2018-05-08T05:24:14.985Z,160
2018-05-08T05:24:40.458Z,160
2018-05-08T05:25:05.950Z,165
2018-05-08T05:25:31.410Z,165
2018-05-08T05:25:56.886Z,165
2018-05-08T05:26:22.373Z,165
2018-05-08T05:26:48.011Z,165
2018-05-08T05:27:13.494Z,165
2018-05-08T05:27:38.982Z,165
2018-05-08T05:28:04.598Z,165
2018-05-08T05:28:30.067Z,165
2018-05-08T05:28:55.540Z,165
2018-05-08T05:29:21.073Z,165
2018-05-08T05:29:46.600Z,165
2018-05-08T05:30:12.085Z,170
2018-05-08T05:30:37.573Z,170
2018-05-08T05:31:03.080Z,170
2018-05-08T05:31:28.649Z,170
2018-05-08T05:31:54.140Z,170
2018-05-08T05:32:19.659Z,170
2018-05-08T05:32:45.197Z,170
2018-05-08T05:33:10.658Z,175
2018-05-08T05:33:36.161Z,170
2018-05-08T05:34:01.667Z,170
2018-05-08T05:34:27.162Z,175
2018-05-08T05:34:52.646Z,175
2018-05-08T05:35:18.168Z,175
2018-05-08T05:35:43.654Z,175
2018-05-08T05:36:09.140Z,175
2018-05-08T05:36:34.618Z,175
2018-05-08T05:37:00.112Z,175
2018-05-08T05:37:25.623Z,175
2018-05-08T05:37:51.122Z,175
2018-05-08T05:38:16.683Z,180
2018-05-08T05:38:42.158Z,180
2018-05-08T05:39:07.675Z,180
2018-05-08T05:39:33.176Z,180
2018-05-08T05:39:58.700Z,180
2018-05-08T05:40:24.207Z,180
2018-05-08T05:40:49.661Z,180
2018-05-08T05:41:15.172Z,180
2018-05-08T05:41:40.663Z,180
2018-05-08T05:42:06.171Z,180
2018-05-08T05:42:31.734Z,180
2018-05-08T05:42:57.163Z,185
2018-05-08T05:43:22.659Z,185
2018-05-08T05:43:48.139Z,185
2018-05-08T05:44:13.626Z,185
2018-05-08T05:44:39.156Z,185
2018-05-08T05:45:04.656Z,185
2018-05-08T05:46:28.229Z,185
2018-05-08T05:46:53.721Z,185
2018-05-08T05:47:19.216Z,185
2018-05-08T05:47:44.700Z,190
2018-05-08T05:48:10.240Z,190
2018-05-08T05:48:35.748Z,190
2018-05-08T05:49:01.260Z,190
2018-05-08T05:49:26.737Z,195
2018-05-08T05:49:52.250Z,195
2018-05-08T05:50:17.740Z,195
2018-05-08T05:50:43.223Z,200
2018-05-08T05:51:08.709Z,200
2018-05-08T05:51:34.278Z,205
2018-05-08T05:51:59.909Z,215
2018-05-08T05:52:25.435Z,220
2018-05-08T05:52:50.904Z,235
2018-05-08T05:53:16.431Z,240
2018-05-08T05:53:41.901Z,250
2018-05-08T05:54:07.405Z,260
2018-05-08T05:54:32.891Z,275
2018-05-08T05:54:58.388Z,280
2018-05-08T05:55:23.886Z,295
2018-05-08T05:56:53.024Z,340
2018-05-08T05:57:18.530Z,350
2018-05-08T05:57:44.011Z,355
2018-05-08T05:58:09.505Z,360
2018-05-08T05:58:35.010Z,360
2018-05-08T05:59:00.511Z,355
2018-05-08T05:59:26.032Z,350
2018-05-08T05:59:51.499Z,355
2018-05-08T06:00:17.052Z,360
2018-05-08T06:00:42.505Z,370
2018-05-08T06:01:08.034Z,380
2018-05-08T06:01:33.544Z,385
2018-05-08T06:01:59.010Z,380
2018-05-08T06:02:24.490Z,380
2018-05-08T06:02:49.967Z,375
2018-05-08T06:03:15.441Z,375
2018-05-08T06:03:40.943Z,375
2018-05-08T06:04:06.402Z,395
2018-05-08T06:04:31.913Z,455
2018-05-08T06:04:57.387Z,540
2018-05-08T06:05:22.919Z,630
2018-05-08T06:05:48.466Z,740
2018-05-08T06:06:13.989Z,875
2018-05-08T06:06:39.470Z,965
2018-05-08T06:07:04.929Z,1015
2018-05-08T06:07:30.406Z,1050
2018-05-08T06:07:55.919Z,1040
2018-05-08T06:08:21.407Z,1035
2018-05-08T06:08:46.939Z,1040
2018-05-08T06:09:12.460Z,1050
2018-05-08T06:09:37.907Z,1040
2018-05-08T06:10:03.385Z,1010
2018-05-08T06:10:28.862Z,975
2018-05-08T06:10:54.410Z,945
2018-05-08T06:11:20.120Z,915
2018-05-08T06:11:45.666Z,890
2018-05-08T06:12:11.208Z,895
2018-05-08T06:12:36.697Z,890
2018-05-08T06:13:02.252Z,895
2018-05-08T06:13:27.715Z,910
2018-05-08T06:13:53.237Z,945
2018-05-08T06:14:18.730Z,970
2018-05-08T06:14:44.252Z,960
2018-05-08T06:15:09.768Z,930
2018-05-08T06:15:35.321Z,925
2018-05-08T06:16:00.916Z,895
2018-05-08T06:16:26.497Z,860
2018-05-08T06:16:52.052Z,830
2018-05-08T06:17:17.686Z,815
2018-05-08T06:17:43.456Z,825
2018-05-08T06:18:08.965Z,805
2018-05-08T06:18:34.495Z,740
2018-05-08T06:19:00.112Z,630
2018-05-08T06:19:25.699Z,475
2018-05-08T06:19:51.207Z,365
2018-05-08T06:20:16.856Z,315
2018-05-08T06:20:42.582Z,295
2018-05-08T06:21:08.295Z,280
2018-05-08T06:21:33.878Z,275
2018-05-08T06:21:59.514Z,275
2018-05-08T06:22:25.378Z,290
2018-05-08T06:22:51.102Z,305
2018-05-08T06:23:16.777Z,375
2018-05-08T06:23:42.410Z,475
2018-05-08T06:24:08.232Z,660
2018-05-08T06:24:33.997Z,875
2018-05-08T06:24:59.660Z,1000
2018-05-08T06:25:25.393Z,1095
2018-05-08T06:25:51.212Z,1105
2018-05-08T06:26:16.919Z,1070
2018-05-08T06:26:42.567Z,1040
2018-05-08T06:27:08.314Z,1005
2018-05-08T06:27:34.133Z,995
2018-05-08T06:27:59.859Z,990
2018-05-08T06:28:25.604Z,1010
2018-05-08T06:28:51.278Z,1030
2018-05-08T06:29:16.986Z,955
2018-05-08T06:29:42.783Z,840
2018-05-08T06:30:08.463Z,675
2018-05-08T06:31:33.448Z,245
2018-05-08T06:31:59.161Z,225
2018-05-08T06:32:24.854Z,220
2018-05-08T06:32:50.603Z,215
2018-05-08T06:33:16.247Z,210
2018-05-08T06:33:41.901Z,210
2018-05-08T06:34:07.429Z,205
2018-05-08T06:34:33.059Z,205
2018-05-08T06:34:58.660Z,200
2018-05-08T06:35:24.316Z,200
2018-05-08T06:35:49.981Z,195
2018-05-08T06:36:15.649Z,195
2018-05-08T06:36:41.242Z,200
2018-05-08T06:37:07.013Z,200
2018-05-08T06:37:32.588Z,195
2018-05-08T06:37:58.253Z,195
2018-05-08T06:38:23.840Z,195
2018-05-08T06:38:49.413Z,195
2018-05-08T06:39:15.171Z,195
2018-05-08T06:39:40.698Z,195
2018-05-08T06:40:06.379Z,190
2018-05-08T06:40:31.907Z,190
2018-05-08T06:40:57.549Z,190
2018-05-08T06:41:23.208Z,190
2018-05-08T06:41:48.793Z,190
2018-05-08T06:42:14.407Z,190
2018-05-08T06:42:39.937Z,190
2018-05-08T06:43:05.590Z,190
2018-05-08T06:43:31.349Z,190
2018-05-08T06:43:56.981Z,195
2018-05-08T06:44:22.615Z,190
2018-05-08T06:44:48.292Z,185
2018-05-08T06:45:13.959Z,185
2018-05-08T06:45:39.698Z,185
2018-05-08T06:46:05.534Z,185
2018-05-08T06:46:31.089Z,185
2018-05-08T06:46:56.705Z,185
2018-05-08T06:47:22.315Z,185
2018-05-08T06:47:47.878Z,185
2018-05-08T06:48:13.429Z,185
2018-05-08T06:48:39.160Z,185
2018-05-08T06:49:04.953Z,185
2018-05-08T06:49:30.642Z,185
2018-05-08T06:49:56.298Z,185
2018-05-08T06:50:22.132Z,190
2018-05-08T06:50:47.640Z,190
2018-05-08T06:51:13.468Z,195
2018-05-08T06:51:38.992Z,195
2018-05-08T06:52:04.755Z,195
2018-05-08T06:52:30.368Z,200
2018-05-08T06:52:56.002Z,205
2018-05-08T06:53:21.746Z,205
2018-05-08T06:53:47.615Z,210
2018-05-08T06:54:13.267Z,210
2018-05-08T06:54:38.861Z,215
2018-05-08T06:55:04.551Z,215
2018-05-08T06:55:30.138Z,220
2018-05-08T06:55:55.771Z,220
2018-05-08T06:56:21.363Z,225
2018-05-08T06:56:46.975Z,230
2018-05-08T06:57:12.619Z,230
2018-05-08T06:57:38.365Z,235
2018-05-08T06:58:03.890Z,240
2018-05-08T06:58:29.419Z,245
2018-05-08T06:58:55.048Z,250
2018-05-08T06:59:20.882Z,265
2018-05-08T06:59:46.376Z,295
2018-05-08T07:00:12.141Z,360
2018-05-08T07:00:37.738Z,450
2018-05-08T07:01:03.306Z,555
2018-05-08T07:01:28.958Z,665
2018-05-08T07:01:54.404Z,750
2018-05-08T07:02:19.962Z,815
2018-05-08T07:02:46.009Z,860
2018-05-08T07:03:11.219Z,940
2018-05-08T07:03:36.794Z,1000
2018-05-08T07:04:02.383Z,1055
2018-05-08T07:04:27.880Z,1090
2018-05-08T07:04:53.407Z,1105
2018-05-08T07:05:19.023Z,1080
2018-05-08T07:05:44.565Z,1065
2018-05-08T07:06:10.165Z,1050
2018-05-08T07:06:35.928Z,1040
2018-05-08T07:07:01.561Z,1035
2018-05-08T07:07:27.176Z,1030
2018-05-08T07:07:52.754Z,1055
2018-05-08T07:08:18.290Z,1090
2018-05-08T07:08:43.906Z,1125
2018-05-08T07:09:09.464Z,1170
2018-05-08T07:09:35.179Z,1225
2018-05-08T07:10:00.735Z,1250
2018-05-08T07:10:26.265Z,1260
2018-05-08T07:10:51.897Z,1255
2018-05-08T07:11:17.446Z,1245
2018-05-08T07:11:43.062Z,1260
2018-05-08T07:12:08.622Z,1330
2018-05-08T07:12:34.234Z,1400
2018-05-08T07:12:59.931Z,1425
2018-05-08T07:13:25.587Z,1415
2018-05-08T07:13:51.235Z,1410
2018-05-08T07:14:16.828Z,1440
2018-05-08T07:14:42.359Z,1440
2018-05-08T07:15:08.003Z,1425
2018-05-08T07:15:33.698Z,1395
2018-05-08T07:15:59.334Z,1355
2018-05-08T07:16:24.851Z,1335
2018-05-08T07:16:50.413Z,1360
2018-05-08T07:17:16.038Z,1410
2018-05-08T07:17:41.550Z,1440
2018-05-08T07:18:07.172Z,1435
2018-05-08T07:18:32.775Z,1415
2018-05-08T07:18:58.426Z,1355
2018-05-08T07:19:24.125Z,1310
2018-05-08T07:19:49.721Z,1300
2018-05-08T07:20:15.341Z,1280
2018-05-08T07:20:40.896Z,1315
2018-05-08T07:21:06.504Z,1350
2018-05-08T07:21:32.169Z,1370
2018-05-08T07:21:57.718Z,1365
2018-05-08T07:22:23.410Z,1390
2018-05-08T07:22:49.124Z,1420
2018-05-08T07:23:14.678Z,1460
2018-05-08T07:23:40.258Z,1470
2018-05-08T07:24:05.928Z,1450
2018-05-08T07:24:31.525Z,1410
2018-05-08T07:24:57.126Z,1380
2018-05-08T07:25:22.642Z,1340
2018-05-08T07:25:48.276Z,1305
2018-05-08T07:26:13.843Z,1270
2018-05-08T07:26:39.458Z,1245
2018-05-08T07:27:04.932Z,1260
2018-05-08T07:27:30.502Z,1315
2018-05-08T07:27:56.126Z,1365
2018-05-08T07:28:21.737Z,1410
2018-05-08T07:28:47.291Z,1440
2018-05-08T07:29:12.912Z,1455
2018-05-08T07:29:38.505Z,1460
2018-05-08T07:30:04.141Z,1440
2018-05-08T07:30:29.659Z,1410
2018-05-08T07:30:55.292Z,1390
2018-05-08T07:31:20.737Z,1395
2018-05-08T07:31:46.329Z,1440
2018-05-08T07:32:11.906Z,1445
2018-05-08T07:32:37.507Z,1405
2018-05-08T07:33:03.014Z,1315
2018-05-08T07:33:28.577Z,1155
2018-05-08T07:33:54.163Z,950
2018-05-08T07:34:19.728Z,755
2018-05-08T07:34:45.328Z,600
2018-05-08T07:35:10.909Z,485
2018-05-08T07:35:36.456Z,385
2018-05-08T07:36:02.010Z,310
2018-05-08T07:36:27.534Z,280
2018-05-08T07:36:53.183Z,260
2018-05-08T07:37:18.691Z,250
2018-05-08T07:37:44.273Z,245
2018-05-08T07:38:09.829Z,240
2018-05-08T07:38:35.330Z,235
2018-05-08T07:39:00.871Z,235
2018-05-08T07:39:26.551Z,230
2018-05-08T07:39:52.292Z,225
2018-05-08T07:40:18.068Z,225
2018-05-08T07:40:43.597Z,220
2018-05-08T07:41:09.073Z,220
2018-05-08T07:41:34.703Z,220
2018-05-08T07:42:00.248Z,215
2018-05-08T07:43:14.249Z,210
2018-05-08T07:43:39.771Z,205
2018-05-08T07:44:05.342Z,205
2018-05-08T07:44:31.228Z,205
2018-05-08T07:44:57.058Z,200
2018-05-08T07:45:22.984Z,200
2018-05-08T07:45:48.732Z,195
2018-05-08T07:46:14.274Z,195
2018-05-08T07:46:39.939Z,195
2018-05-08T07:47:05.453Z,190
2018-05-08T07:47:31.064Z,190
2018-05-08T07:47:56.691Z,190
2018-05-08T07:48:22.282Z,190
2018-05-08T07:48:47.797Z,185
2018-05-08T07:49:13.345Z,185
2018-05-08T07:49:38.928Z,185
2018-05-08T07:50:04.523Z,185
2018-05-08T07:50:30.177Z,185
2018-05-08T07:50:55.723Z,185
2018-05-08T07:51:21.307Z,185
2018-05-08T07:51:46.915Z,180
2018-05-08T07:52:12.468Z,180
2018-05-08T07:52:38.080Z,180
2018-05-08T07:53:03.681Z,180
2018-05-08T07:54:27.907Z,175
2018-05-08T07:54:53.449Z,175
2018-05-08T07:55:18.981Z,175
2018-05-08T07:55:44.559Z,175
2018-05-08T07:56:10.097Z,175
2018-05-08T07:56:35.720Z,175
2018-05-08T07:57:01.250Z,175
2018-05-08T07:57:26.900Z,175
2018-05-08T07:57:52.630Z,175
2018-05-08T07:58:18.177Z,175
2018-05-08T07:58:43.743Z,175
2018-05-08T07:59:09.344Z,175
2018-05-08T07:59:34.976Z,175
2018-05-08T08:00:00.533Z,175
2018-05-08T08:00:26.079Z,175
2018-05-08T08:00:51.650Z,175
2018-05-08T08:01:17.231Z,175
2018-05-08T08:01:42.902Z,175
2018-05-08T08:02:08.421Z,175
2018-05-08T08:02:34.010Z,175
2018-05-08T08:02:59.596Z,175
2018-05-08T08:03:25.236Z,175
2018-05-08T08:03:50.825Z,175
2018-05-08T08:04:16.397Z,170
2018-05-08T08:04:42.008Z,170
2018-05-08T08:05:07.540Z,170
2018-05-08T08:05:33.095Z,170
2018-05-08T08:05:58.598Z,170
2018-05-08T08:06:24.159Z,170
2018-05-08T08:06:49.749Z,170
2018-05-08T08:07:15.269Z,170
2018-05-08T08:07:40.809Z,170
2018-05-08T08:08:06.338Z,170
2018-05-08T08:08:31.853Z,170
2018-05-08T08:08:57.465Z,170
2018-05-08T08:09:23.027Z,170
2018-05-08T08:09:48.639Z,170
2018-05-08T08:10:14.388Z,170
2018-05-08T08:10:40.004Z,175
2018-05-08T08:11:05.504Z,170
2018-05-08T08:11:31.146Z,170
2018-05-08T08:11:56.708Z,170
2018-05-08T08:12:22.329Z,170
2018-05-08T08:12:47.719Z,170
2018-05-08T08:13:13.258Z,170
2018-05-08T08:13:38.862Z,165
2018-05-08T08:14:04.404Z,165
2018-05-08T08:14:29.986Z,165
2018-05-08T08:14:55.552Z,165
2018-05-08T08:16:09.422Z,165
2018-05-08T08:16:34.890Z,165
2018-05-08T08:17:00.501Z,165
2018-05-08T08:17:26.003Z,165
2018-05-08T08:17:51.688Z,165
2018-05-08T08:18:17.407Z,165
2018-05-08T08:18:43.107Z,165
2018-05-08T08:19:08.671Z,165
2018-05-08T08:19:34.234Z,165
2018-05-08T08:19:59.785Z,165
2018-05-08T08:20:25.350Z,165
2018-05-08T08:20:50.953Z,165
2018-05-08T08:21:16.528Z,165
2018-05-08T08:21:42.135Z,165
2018-05-08T08:22:07.570Z,165
2018-05-08T08:22:33.110Z,165
2018-05-08T08:22:58.637Z,160
2018-05-08T08:23:24.189Z,160
2018-05-08T08:23:49.799Z,160
2018-05-08T08:24:15.288Z,160
2018-05-08T08:24:40.855Z,160
2018-05-08T08:25:06.399Z,160
2018-05-08T08:25:32.012Z,160
2018-05-08T08:25:57.575Z,160
2018-05-08T08:26:23.139Z,160
2018-05-08T08:26:48.753Z,160
2018-05-08T08:27:14.248Z,160
2018-05-08T08:27:39.880Z,160
2018-05-08T08:28:05.437Z,160
2018-05-08T08:28:31.039Z,160
2018-05-08T08:28:56.542Z,160
2018-05-08T08:29:22.108Z,160
2018-05-08T08:29:47.694Z,160
2018-05-08T08:30:13.205Z,160
2018-05-08T08:30:38.806Z,160
2018-05-08T08:31:04.394Z,160
2018-05-08T08:31:30.038Z,155
2018-05-08T08:31:55.636Z,155
2018-05-08T08:32:21.305Z,155
2018-05-08T08:33:40.913Z,155
2018-05-08T08:34:06.363Z,155
2018-05-08T08:34:32.528Z,155
2018-05-08T08:34:58.031Z,155
2018-05-08T08:35:23.639Z,155
2018-05-08T08:35:49.143Z,155
2018-05-08T08:36:14.710Z,155
2018-05-08T08:36:40.216Z,155
2018-05-08T08:37:05.792Z,155
2018-05-08T08:37:31.298Z,155
2018-05-08T08:37:56.776Z,155
2018-05-08T08:38:22.372Z,155
2018-05-08T08:38:47.905Z,155
2018-05-08T08:39:13.412Z,155
2018-05-08T08:39:38.978Z,155
2018-05-08T08:40:04.590Z,155
2018-05-08T08:40:30.155Z,155
2018-05-08T08:40:55.749Z,155
2018-05-08T08:41:21.207Z,155
2018-05-08T08:41:46.854Z,155
2018-05-08T08:42:12.479Z,155
2018-05-08T08:42:38.071Z,150
2018-05-08T08:43:03.737Z,150
2018-05-08T08:43:29.177Z,150
2018-05-08T08:43:54.892Z,150
2018-05-08T08:44:20.445Z,150
2018-05-08T08:44:46.021Z,150
2018-05-08T08:45:11.575Z,150
2018-05-08T08:45:37.104Z,150
2018-05-08T08:46:02.657Z,150
2018-05-08T08:46:28.287Z,150
2018-05-08T08:46:53.841Z,150
2018-05-08T08:47:19.504Z,150
2018-05-08T08:47:45.107Z,150
2018-05-08T08:48:10.555Z,150
2018-05-08T08:48:36.141Z,150
2018-05-08T08:49:01.763Z,150
2018-05-08T08:49:27.384Z,150
2018-05-08T08:49:52.948Z,150
2018-05-08T08:50:18.561Z,150
2018-05-08T08:50:44.108Z,150
2018-05-08T08:51:09.736Z,150
2018-05-08T08:51:35.253Z,150
2018-05-08T08:52:00.759Z,150
2018-05-08T08:52:26.427Z,150
2018-05-08T08:52:51.866Z,150
2018-05-08T08:53:17.380Z,150
2018-05-08T08:53:42.917Z,150
2018-05-08T08:54:08.499Z,150
2018-05-08T08:54:34.260Z,150
2018-05-08T08:54:59.695Z,150
2018-05-08T08:55:25.158Z,145
2018-05-08T08:55:50.676Z,145
2018-05-08T08:56:16.272Z,145
2018-05-08T08:56:41.779Z,145
2018-05-08T08:57:07.280Z,145
2018-05-08T08:57:32.856Z,145
2018-05-08T08:57:58.358Z,145
2018-05-08T08:58:23.921Z,145
2018-05-08T08:58:49.463Z,145
2018-05-08T08:59:15.053Z,145
2018-05-08T08:59:40.534Z,145
2018-05-08T09:00:06.055Z,145
2018-05-08T09:00:31.626Z,145
2018-05-08T09:00:57.195Z,145
2018-05-08T09:01:22.773Z,145
2018-05-08T09:01:48.310Z,145
2018-05-08T09:02:13.866Z,145
2018-05-08T09:02:39.449Z,145
2018-05-08T09:03:05.122Z,145
2018-05-08T09:03:30.716Z,145
2018-05-08T09:03:56.298Z,145
2018-05-08T09:04:21.782Z,145
2018-05-08T09:04:47.405Z,145
2018-05-08T09:05:12.957Z,145
2018-05-08T09:05:38.596Z,145
2018-05-08T09:06:04.125Z,145
2018-05-08T09:06:29.693Z,145
2018-05-08T09:06:55.252Z,145
2018-05-08T09:07:20.807Z,145
2018-05-08T09:07:46.374Z,145
2018-05-08T09:08:12.178Z,145
2018-05-08T09:08:37.612Z,145
2018-05-08T09:09:03.229Z,145
2018-05-08T09:09:28.789Z,140
2018-05-08T09:09:54.455Z,140
2018-05-08T09:10:20.077Z,140
2018-05-08T09:10:45.779Z,140
2018-05-08T09:11:11.427Z,140
2018-05-08T09:11:36.876Z,140
2018-05-08T09:12:02.426Z,140
2018-05-08T09:12:27.986Z,140
2018-05-08T09:12:53.593Z,140
2018-05-08T09:13:19.190Z,140
2018-05-08T09:13:44.737Z,140
2018-05-08T09:14:10.290Z,140
2018-05-08T09:14:35.836Z,140
2018-05-08T09:15:01.460Z,140
2018-05-08T09:15:27.070Z,140
2018-05-08T09:15:52.770Z,140
2018-05-08T09:16:18.350Z,140
2018-05-08T09:16:43.897Z,140
2018-05-08T09:17:09.471Z,140
2018-05-08T09:17:34.999Z,140
2018-05-08T09:18:00.560Z,140
2018-05-08T09:18:26.108Z,140
2018-05-08T09:18:51.651Z,140
2018-05-08T09:19:17.195Z,140
2018-05-08T09:19:42.851Z,140
2018-05-08T09:20:08.396Z,140
2018-05-08T09:20:34.002Z,140
2018-05-08T09:20:59.498Z,140
2018-05-08T09:21:25.246Z,140
2018-05-08T09:21:50.843Z,140
2018-05-08T09:22:16.460Z,140
2018-05-08T09:22:42.051Z,140
2018-05-08T09:23:07.680Z,140
2018-05-08T09:23:33.292Z,140
2018-05-08T09:23:58.885Z,140
2018-05-08T09:24:24.470Z,140
2018-05-08T09:24:49.990Z,140
2018-05-08T09:25:15.774Z,140
2018-05-08T09:25:41.364Z,140
2018-05-08T09:26:06.896Z,140
2018-05-08T09:26:32.401Z,140
2018-05-08T09:26:57.986Z,140
2018-05-08T09:27:23.623Z,140
2018-05-08T09:27:49.258Z,140
2018-05-08T09:28:15.019Z,140
2018-05-08T09:28:41.279Z,140
2018-05-08T09:29:06.868Z,140
2018-05-08T09:29:32.881Z,140
2018-05-08T09:29:58.468Z,140
2018-05-08T09:30:24.132Z,140
2018-05-08T09:30:49.816Z,140
2018-05-08T09:31:15.513Z,140
2018-05-08T09:31:41.126Z,140
2018-05-08T09:32:06.690Z,140
2018-05-08T09:32:32.333Z,140
2018-05-08T09:32:58.104Z,135
2018-05-08T09:33:23.627Z,135
2018-05-08T09:33:49.208Z,135
2018-05-08T09:34:14.815Z,135
2018-05-08T09:34:40.439Z,135
2018-05-08T09:35:05.982Z,135
2018-05-08T09:35:31.620Z,135
2018-05-08T09:35:57.192Z,135
2018-05-08T09:36:22.827Z,135
2018-05-08T09:36:48.483Z,135
2018-05-08T09:37:14.165Z,135
2018-05-08T09:37:39.934Z,135
2018-05-08T09:38:06.531Z,135
2018-05-08T09:38:32.148Z,135
2018-05-08T09:38:57.800Z,135
2018-05-08T09:39:23.318Z,130
2018-05-08T09:39:48.893Z,135
2018-05-08T09:40:14.674Z,130
2018-05-08T09:40:40.367Z,130
2018-05-08T09:41:06.267Z,130
2018-05-08T09:41:31.889Z,130
2018-05-08T09:41:57.485Z,130
2018-05-08T09:42:23.514Z,130
2018-05-08T09:42:49.709Z,130
2018-05-08T09:43:15.328Z,130
2018-05-08T09:43:40.977Z,130
2018-05-08T09:44:06.511Z,130
2018-05-08T09:44:32.094Z,130
2018-05-08T09:44:57.772Z,130
2018-05-08T09:45:23.398Z,130
2018-05-08T09:45:49.152Z,130
2018-05-08T09:46:14.742Z,130
2018-05-08T09:46:40.408Z,130
2018-05-08T09:47:06.103Z,130
2018-05-08T09:47:31.778Z,130
2018-05-08T09:47:57.551Z,130
2018-05-08T09:48:23.148Z,130
2018-05-08T09:48:48.743Z,130
2018-05-08T09:49:14.455Z,130
2018-05-08T09:49:40.045Z,130
2018-05-08T09:50:05.615Z,130
2018-05-08T09:50:31.185Z,130
2018-05-08T09:50:56.698Z,130
2018-05-08T09:51:22.301Z,130
2018-05-08T09:51:48.105Z,130
2018-05-08T09:52:13.662Z,130
2018-05-08T09:52:39.759Z,130
2018-05-08T09:53:05.399Z,130
2018-05-08T09:53:30.915Z,125
2018-05-08T09:53:56.529Z,125
2018-05-08T09:54:22.028Z,125
2018-05-08T09:54:47.665Z,125
2018-05-08T09:55:13.285Z,125
2018-05-08T09:55:38.913Z,125
2018-05-08T09:56:04.629Z,125
2018-05-08T09:56:30.157Z,125
2018-05-08T09:56:55.749Z,125
2018-05-08T09:57:22.600Z,125
2018-05-08T09:57:47.810Z,125
2018-05-08T09:58:13.461Z,125
2018-05-08T09:58:39.046Z,125
2018-05-08T09:59:04.557Z,125
2018-05-08T09:59:30.167Z,125
2018-05-08T09:59:55.695Z,125
2018-05-08T10:00:21.262Z,125
2018-05-08T10:00:46.859Z,125
2018-05-08T10:01:12.442Z,125
2018-05-08T10:01:37.982Z,125
2018-05-08T10:02:03.547Z,125
2018-05-08T10:02:29.166Z,125
2018-05-08T10:02:54.742Z,120
2018-05-08T10:03:20.389Z,125
2018-05-08T10:03:45.969Z,120
2018-05-08T10:04:11.566Z,120
2018-05-08T10:04:37.085Z,120
2018-05-08T10:05:02.652Z,120
2018-05-08T10:05:28.243Z,120
2018-05-08T10:05:53.890Z,120
2018-05-08T10:06:19.450Z,120
2018-05-08T10:06:45.223Z,120
2018-05-08T10:07:10.723Z,120
2018-05-08T10:07:36.283Z,120
2018-05-08T10:08:01.874Z,120
2018-05-08T10:08:27.453Z,120
2018-05-08T10:08:52.961Z,120
2018-05-08T10:09:18.550Z,120
2018-05-08T10:09:44.263Z,120
2018-05-08T10:10:09.939Z,120
2018-05-08T10:10:37.145Z,120
2018-05-08T10:11:05.209Z,120
2018-05-08T10:11:35.608Z,120
2018-05-08T10:12:02.612Z,120
2018-05-08T10:12:32.109Z,120
2018-05-08T10:13:00.113Z,120
2018-05-08T10:13:27.109Z,120
2018-05-08T10:13:54.317Z,120
2018-05-08T10:14:19.841Z,120
2018-05-08T10:14:45.384Z,120